createdAt,value
2018-02-16T00:00:51.278Z,2.77
2018-02-16T00:01:51.268Z,2.75
2018-02-16T00:02:51.259Z,2.78
2018-02-16T00:03:51.252Z,2.79
2018-02-16T00:04:51.244Z,2.79
2018-02-16T00:05:51.234Z,2.66
2018-02-16T00:06:51.224Z,2.85
2018-02-16T00:07:51.219Z,2.81
2018-02-16T00:08:51.209Z,2.85
2018-02-16T00:09:51.199Z,2.79
2018-02-16T00:10:51.195Z,2.82
2018-02-16T00:11:51.184Z,2.75
2018-02-16T00:12:51.175Z,2.74
2018-02-16T00:13:51.160Z,2.81
2018-02-16T00:14:51.160Z,2.74
2018-02-16T00:15:51.148Z,2.77
2018-02-16T00:16:51.141Z,2.85
2018-02-16T00:17:51.134Z,2.74
2018-02-16T00:18:51.123Z,2.79
2018-02-16T00:19:51.115Z,2.77
2018-02-16T00:20:51.103Z,2.84
2018-02-16T00:21:51.096Z,2.85
2018-02-16T00:22:51.091Z,2.89
2018-02-16T00:23:51.081Z,2.87
2018-02-16T00:24:51.069Z,2.85
2018-02-16T00:25:51.062Z,2.87
2018-02-16T00:26:51.056Z,2.84
2018-02-16T00:27:51.046Z,2.84
2018-02-16T00:28:51.036Z,2.90
2018-02-16T00:29:51.026Z,2.89
2018-02-16T00:30:51.021Z,2.79
2018-02-16T00:31:51.010Z,2.82
2018-02-16T00:32:51.002Z,2.84
2018-02-16T00:33:50.989Z,2.78
2018-02-16T00:34:50.985Z,2.90
2018-02-16T00:35:50.977Z,2.79
2018-02-16T00:36:50.969Z,2.90
2018-02-16T00:37:50.960Z,2.87
2018-02-16T00:38:50.951Z,2.84
2018-02-16T00:39:50.945Z,2.82
2018-02-16T00:40:50.933Z,2.84
2018-02-16T00:41:50.927Z,2.84
2018-02-16T00:42:50.918Z,2.92
2018-02-16T00:43:50.907Z,2.84
2018-02-16T00:44:50.908Z,3.00
2018-02-16T00:45:50.895Z,2.93
2018-02-16T00:46:50.883Z,2.90
2018-02-16T00:47:50.877Z,2.97
2018-02-16T00:48:50.867Z,2.99
2018-02-16T00:49:50.859Z,3.02
2018-02-16T00:50:50.849Z,3.00
2018-02-16T00:51:50.841Z,3.00
2018-02-16T00:52:50.834Z,2.99
2018-02-16T00:53:50.824Z,2.96
2018-02-16T00:54:50.816Z,2.93
2018-02-16T00:55:50.806Z,2.96
2018-02-16T00:56:50.800Z,2.95
2018-02-16T00:57:50.791Z,3.00
2018-02-16T00:58:50.782Z,2.96
2018-02-16T00:59:50.776Z,2.96
2018-02-16T01:00:50.761Z,3.02
2018-02-16T01:01:50.755Z,2.97
2018-02-16T01:02:50.748Z,2.95
2018-02-16T01:03:50.738Z,3.03
2018-02-16T01:04:50.732Z,3.10
2018-02-16T01:05:50.722Z,3.02
2018-02-16T01:06:50.715Z,3.02
2018-02-16T01:07:50.702Z,3.05
2018-02-16T01:08:50.696Z,3.03
2018-02-16T01:09:50.686Z,3.03
2018-02-16T01:10:50.680Z,3.02
2018-02-16T01:11:50.677Z,3.00
2018-02-16T01:12:50.664Z,2.99
2018-02-16T01:13:50.656Z,2.95
2018-02-16T01:14:50.645Z,3.10
2018-02-16T01:15:50.637Z,3.10
2018-02-16T01:16:50.631Z,2.97
2018-02-16T01:17:50.619Z,3.15
2018-02-16T01:18:50.611Z,3.11
2018-02-16T01:19:50.604Z,3.06
2018-02-16T01:20:50.597Z,3.15
2018-02-16T01:21:50.585Z,3.06
2018-02-16T01:22:50.577Z,3.10
2018-02-16T01:23:50.567Z,3.06
2018-02-16T01:24:50.560Z,3.02
2018-02-16T01:25:50.552Z,3.03
2018-02-16T01:26:50.542Z,3.02
2018-02-16T01:27:50.533Z,2.95
2018-02-16T01:28:50.526Z,2.95
2018-02-16T01:29:50.520Z,3.00
2018-02-16T01:30:50.513Z,2.97
2018-02-16T01:31:50.504Z,2.87
2018-02-16T01:32:50.494Z,2.84
2018-02-16T01:33:50.486Z,2.85
2018-02-16T01:34:50.472Z,2.93
2018-02-16T01:35:50.467Z,2.89
2018-02-16T01:36:50.457Z,2.85
2018-02-16T01:37:50.449Z,2.84
2018-02-16T01:38:50.448Z,2.89
2018-02-16T01:39:50.434Z,2.81
2018-02-16T01:40:50.425Z,2.89
2018-02-16T01:41:50.414Z,2.85
2018-02-16T01:42:50.406Z,2.90
2018-02-16T01:43:50.400Z,2.89
2018-02-16T01:44:50.391Z,2.90
2018-02-16T01:45:50.380Z,2.99
2018-02-16T01:46:50.374Z,3.00
2018-02-16T01:47:50.365Z,3.06
2018-02-16T01:48:50.356Z,3.14
2018-02-16T01:49:50.349Z,3.13
2018-02-16T01:50:50.342Z,3.10
2018-02-16T01:51:50.335Z,3.13
2018-02-16T01:52:50.322Z,3.10
2018-02-16T01:53:50.313Z,3.10
2018-02-16T01:54:50.300Z,3.13
2018-02-16T01:55:50.297Z,3.11
2018-02-16T01:56:50.286Z,3.13
2018-02-16T01:57:50.279Z,3.15
2018-02-16T01:58:50.273Z,3.20
2018-02-16T01:59:50.263Z,3.14
2018-02-16T02:00:50.255Z,3.11
2018-02-16T02:01:50.245Z,3.13
2018-02-16T02:02:50.236Z,3.06
2018-02-16T02:03:50.227Z,3.10
2018-02-16T02:04:50.219Z,3.13
2018-02-16T02:05:50.217Z,3.10
2018-02-16T02:06:50.203Z,3.10
2018-02-16T02:07:50.194Z,3.05
2018-02-16T02:08:50.184Z,3.08
2018-02-16T02:09:50.176Z,3.06
2018-02-16T02:10:50.167Z,3.11
2018-02-16T02:11:50.162Z,3.06
2018-02-16T02:12:50.153Z,3.08
2018-02-16T02:13:50.145Z,3.18
2018-02-16T02:14:50.134Z,3.20
2018-02-16T02:15:50.124Z,3.24
2018-02-16T02:16:50.118Z,3.26
2018-02-16T02:17:50.111Z,3.31
2018-02-16T02:18:50.102Z,3.18
2018-02-16T02:19:50.094Z,3.13
2018-02-16T02:20:50.083Z,3.20
2018-02-16T02:21:50.073Z,3.23
2018-02-16T02:22:50.066Z,3.28
2018-02-16T02:23:50.058Z,3.26
2018-02-16T02:24:50.052Z,3.26
2018-02-16T02:25:50.039Z,3.24
2018-02-16T02:26:50.035Z,3.21
2018-02-16T02:27:50.023Z,3.24
2018-02-16T02:28:50.015Z,3.24
2018-02-16T02:29:50.005Z,3.31
2018-02-16T02:30:49.997Z,3.28
2018-02-16T02:31:50.057Z,3.21
2018-02-16T02:32:49.981Z,3.17
2018-02-16T02:33:49.970Z,3.14
2018-02-16T02:34:49.963Z,3.18
2018-02-16T02:35:49.953Z,3.14
2018-02-16T02:36:49.946Z,3.18
2018-02-16T02:37:49.944Z,3.10
2018-02-16T02:38:49.927Z,3.06
2018-02-16T02:39:49.918Z,3.08
2018-02-16T02:40:49.909Z,3.11
2018-02-16T02:41:49.903Z,3.11
2018-02-16T02:42:49.892Z,3.13
2018-02-16T02:43:49.886Z,3.08
2018-02-16T02:44:49.875Z,3.10
2018-02-16T02:45:49.867Z,3.08
2018-02-16T02:46:49.855Z,3.02
2018-02-16T02:47:49.848Z,3.05
2018-02-16T02:48:49.839Z,3.03
2018-02-16T02:49:49.828Z,2.99
2018-02-16T02:50:49.822Z,3.05
2018-02-16T02:51:49.812Z,3.00
2018-02-16T02:52:49.804Z,3.06
2018-02-16T02:53:49.794Z,3.05
2018-02-16T02:54:49.780Z,2.99
2018-02-16T02:55:49.777Z,3.05
2018-02-16T02:56:49.768Z,3.03
2018-02-16T02:57:49.757Z,3.06
2018-02-16T02:58:49.752Z,3.02
2018-02-16T02:59:49.747Z,3.03
2018-02-16T03:00:49.736Z,2.90
2018-02-16T03:01:49.722Z,3.02
2018-02-16T03:02:49.714Z,2.97
2018-02-16T03:03:49.705Z,2.95
2018-02-16T03:04:49.695Z,3.00
2018-02-16T03:05:49.687Z,3.08
2018-02-16T03:06:49.676Z,3.08
2018-02-16T03:07:49.669Z,3.00
2018-02-16T03:08:49.660Z,2.97
2018-02-16T03:09:49.650Z,2.96
2018-02-16T03:10:49.643Z,2.95
2018-02-16T03:11:49.635Z,2.97
2018-02-16T03:12:49.624Z,3.02
2018-02-16T03:13:49.614Z,2.95
2018-02-16T03:14:49.607Z,3.00
2018-02-16T03:15:49.598Z,3.00
2018-02-16T03:16:49.587Z,2.96
2018-02-16T03:17:49.578Z,3.00
2018-02-16T03:18:49.572Z,2.92
2018-02-16T03:19:49.564Z,2.92
2018-02-16T03:20:49.554Z,2.95
2018-02-16T03:21:49.544Z,2.96
2018-02-16T03:22:49.535Z,3.00
2018-02-16T03:23:49.528Z,3.05
2018-02-16T03:24:49.518Z,2.89
2018-02-16T03:25:49.508Z,2.92
2018-02-16T03:26:49.500Z,2.95
2018-02-16T03:27:49.493Z,2.93
2018-02-16T03:28:49.482Z,2.97
2018-02-16T03:29:49.473Z,2.97
2018-02-16T03:30:49.465Z,3.06
2018-02-16T03:31:49.456Z,3.06
2018-02-16T03:32:49.448Z,2.95
2018-02-16T03:33:49.438Z,3.06
2018-02-16T03:34:49.430Z,2.97
2018-02-16T03:35:49.421Z,3.00
2018-02-16T03:36:49.412Z,3.06
2018-02-16T03:37:49.405Z,2.96
2018-02-16T03:38:49.394Z,3.03
2018-02-16T03:39:49.389Z,2.95
2018-02-16T03:40:49.378Z,3.00
2018-02-16T03:41:49.369Z,2.92
2018-02-16T03:42:49.357Z,2.90
2018-02-16T03:43:49.351Z,2.87
2018-02-16T03:44:49.344Z,2.92
2018-02-16T03:45:49.375Z,2.89
2018-02-16T03:46:49.326Z,2.90
2018-02-16T03:47:49.316Z,3.00
2018-02-16T03:48:49.307Z,2.97
2018-02-16T03:49:49.299Z,2.96
2018-02-16T03:50:49.291Z,2.99
2018-02-16T03:51:49.284Z,3.00
2018-02-16T03:52:49.274Z,2.96
2018-02-16T03:53:49.266Z,3.00
2018-02-16T03:54:49.257Z,3.08
2018-02-16T03:55:49.249Z,3.18
2018-02-16T03:56:49.237Z,3.17
2018-02-16T03:57:49.230Z,3.11
2018-02-16T03:58:49.227Z,3.21
2018-02-16T03:59:49.214Z,3.13
2018-02-16T04:00:49.206Z,3.05
2018-02-16T04:01:49.196Z,3.15
2018-02-16T04:02:49.186Z,3.10
2018-02-16T04:03:49.181Z,2.95
2018-02-16T04:04:49.171Z,3.02
2018-02-16T04:05:49.163Z,3.14
2018-02-16T04:06:49.153Z,3.08
2018-02-16T04:07:49.141Z,3.13
2018-02-16T04:08:49.135Z,3.05
2018-02-16T04:09:49.127Z,3.08
2018-02-16T04:10:49.123Z,3.08
2018-02-16T04:11:49.110Z,3.13
2018-02-16T04:12:49.101Z,3.10
2018-02-16T04:13:49.092Z,2.97
2018-02-16T04:14:49.082Z,3.05
2018-02-16T04:15:49.076Z,2.87
2018-02-16T04:16:49.067Z,2.82
2018-02-16T04:17:49.059Z,2.89
2018-02-16T04:18:49.055Z,2.82
2018-02-16T04:19:49.043Z,2.79
2018-02-16T04:20:49.035Z,2.81
2018-02-16T04:21:49.024Z,2.77
2018-02-16T04:22:49.016Z,2.71
2018-02-16T04:23:49.006Z,2.78
2018-02-16T04:24:49.004Z,2.69
2018-02-16T04:25:48.992Z,2.63
2018-02-16T04:26:48.982Z,2.48
2018-02-16T04:27:48.970Z,2.48
2018-02-16T04:28:48.965Z,2.54
2018-02-16T04:29:48.958Z,2.52
2018-02-16T04:30:48.950Z,2.43
2018-02-16T04:31:48.943Z,2.45
2018-02-16T04:32:48.929Z,2.36
2018-02-16T04:33:48.922Z,2.39
2018-02-16T04:34:48.913Z,2.23
2018-02-16T04:35:48.906Z,2.18
2018-02-16T04:36:48.899Z,2.07
2018-02-16T04:37:48.888Z,2.05
2018-02-16T04:38:48.879Z,2.06
2018-02-16T04:39:48.872Z,1.95
2018-02-16T04:40:48.863Z,1.99
2018-02-16T04:41:48.853Z,2.02
2018-02-16T04:42:48.845Z,2.06
2018-02-16T04:43:48.838Z,1.99
2018-02-16T04:44:48.828Z,1.91
2018-02-16T04:45:48.820Z,1.84
2018-02-16T04:46:48.808Z,1.86
2018-02-16T04:47:48.799Z,1.93
2018-02-16T04:48:48.794Z,1.84
2018-02-16T04:49:48.785Z,1.83
2018-02-16T04:50:48.779Z,1.84
2018-02-16T04:51:48.771Z,1.73
2018-02-16T04:52:48.764Z,1.68
2018-02-16T04:53:48.748Z,1.84
2018-02-16T04:54:48.739Z,1.80
2018-02-16T04:55:48.744Z,1.79
2018-02-16T04:56:48.724Z,1.91
2018-02-16T04:57:48.714Z,2.05
2018-02-16T04:58:48.705Z,1.98
2018-02-16T04:59:48.697Z,2.05
2018-02-16T05:00:48.689Z,2.05
2018-02-16T05:01:48.680Z,2.10
2018-02-16T05:02:48.672Z,2.02
2018-02-16T05:03:48.663Z,2.09
2018-02-16T05:04:48.655Z,2.07
2018-02-16T05:05:48.644Z,2.06
2018-02-16T05:06:48.636Z,2.06
2018-02-16T05:07:48.624Z,2.10
2018-02-16T05:08:48.617Z,2.06
2018-02-16T05:09:48.621Z,2.14
2018-02-16T05:10:48.602Z,2.06
2018-02-16T05:11:48.595Z,2.03
2018-02-16T05:12:48.583Z,2.03
2018-02-16T05:13:48.573Z,2.12
2018-02-16T05:14:48.568Z,2.07
2018-02-16T05:15:48.554Z,2.05
2018-02-16T05:16:48.548Z,2.10
2018-02-16T05:17:48.539Z,1.98
2018-02-16T05:18:48.529Z,1.99
2018-02-16T05:19:48.521Z,2.05
2018-02-16T05:20:48.508Z,1.98
2018-02-16T05:21:48.504Z,2.07
2018-02-16T05:22:48.493Z,2.05
2018-02-16T05:23:48.485Z,2.03
2018-02-16T05:24:48.479Z,2.03
2018-02-16T05:25:48.470Z,2.00
2018-02-16T05:26:48.460Z,1.99
2018-02-16T05:27:48.448Z,2.06
2018-02-16T05:28:48.440Z,2.06
2018-02-16T05:29:48.433Z,2.06
2018-02-16T05:30:48.429Z,2.06
2018-02-16T05:31:48.415Z,2.00
2018-02-16T05:32:48.405Z,2.00
2018-02-16T05:33:48.395Z,1.93
2018-02-16T05:34:48.388Z,2.07
2018-02-16T05:35:48.380Z,2.09
2018-02-16T05:36:48.372Z,2.03
2018-02-16T05:37:48.362Z,2.10
2018-02-16T05:38:48.352Z,2.10
2018-02-16T05:39:48.344Z,1.98
2018-02-16T05:40:48.334Z,2.06
2018-02-16T05:41:48.329Z,2.12
2018-02-16T05:42:48.317Z,2.18
2018-02-16T05:43:48.308Z,2.17
2018-02-16T05:44:48.306Z,2.09
2018-02-16T05:45:48.290Z,2.17
2018-02-16T05:46:48.283Z,2.17
2018-02-16T05:47:48.273Z,2.06
2018-02-16T05:48:48.264Z,2.09
2018-02-16T05:49:48.255Z,2.09
2018-02-16T05:50:48.246Z,2.07
2018-02-16T05:51:48.237Z,1.99
2018-02-16T05:52:48.229Z,2.03
2018-02-16T05:53:48.220Z,1.98
2018-02-16T05:54:48.210Z,2.10
2018-02-16T05:55:48.201Z,2.00
2018-02-16T05:56:48.191Z,1.99
2018-02-16T05:57:48.188Z,1.88
2018-02-16T05:58:48.181Z,1.87
2018-02-16T05:59:48.169Z,1.83
2018-02-16T06:00:48.156Z,1.86
2018-02-16T06:01:48.146Z,1.95
2018-02-16T06:02:48.138Z,1.86
2018-02-16T06:03:48.130Z,1.79
2018-02-16T06:04:48.124Z,1.69
2018-02-16T06:05:48.114Z,1.84
2018-02-16T06:06:48.099Z,1.72
2018-02-16T06:07:48.093Z,1.69
2018-02-16T06:08:48.095Z,1.63
2018-02-16T06:09:48.074Z,1.66
2018-02-16T06:10:48.071Z,1.65
2018-02-16T06:11:48.058Z,1.60
2018-02-16T06:12:48.047Z,1.59
2018-02-16T06:13:48.037Z,1.62
2018-02-16T06:14:48.031Z,1.62
2018-02-16T06:15:48.020Z,1.58
2018-02-16T06:16:48.014Z,1.54
2018-02-16T06:17:48.002Z,1.55
2018-02-16T06:18:47.995Z,1.54
2018-02-16T06:19:47.980Z,1.60
2018-02-16T06:20:47.975Z,1.55
2018-02-16T06:21:47.978Z,1.51
2018-02-16T06:22:47.955Z,1.60
2018-02-16T06:23:47.947Z,1.50
2018-02-16T06:24:47.941Z,1.52
2018-02-16T06:25:47.947Z,1.47
2018-02-16T06:26:47.919Z,1.48
2018-02-16T06:27:47.911Z,1.62
2018-02-16T06:28:47.904Z,1.47
2018-02-16T06:29:47.891Z,1.55
2018-02-16T06:30:47.881Z,1.47
2018-02-16T06:31:47.874Z,1.54
2018-02-16T06:32:47.861Z,1.51
2018-02-16T06:33:47.854Z,1.42
2018-02-16T06:34:47.846Z,1.45
2018-02-16T06:35:47.836Z,1.30
2018-02-16T06:36:47.828Z,1.42
2018-02-16T06:37:47.818Z,1.44
2018-02-16T06:38:47.809Z,1.50
2018-02-16T06:39:47.800Z,1.47
2018-02-16T06:40:47.789Z,1.51
2018-02-16T06:41:47.779Z,1.40
2018-02-16T06:42:47.773Z,1.54
2018-02-16T06:43:47.761Z,1.54
2018-02-16T06:44:47.752Z,1.50
2018-02-16T06:45:47.743Z,1.58
2018-02-16T06:46:47.734Z,1.50
2018-02-16T06:47:47.723Z,1.54
2018-02-16T06:48:47.717Z,1.52
2018-02-16T06:49:47.704Z,1.54
2018-02-16T06:50:47.697Z,1.55
2018-02-16T06:51:47.688Z,1.54
2018-02-16T06:52:47.676Z,1.54
2018-02-16T06:53:47.668Z,1.52
2018-02-16T06:54:47.659Z,1.52
2018-02-16T06:55:47.655Z,1.59
2018-02-16T06:56:47.642Z,1.70
2018-02-16T06:57:47.630Z,1.69
2018-02-16T06:58:47.623Z,1.66
2018-02-16T06:59:47.613Z,1.70
2018-02-16T07:00:47.605Z,1.80
2018-02-16T07:01:47.597Z,1.69
2018-02-16T07:02:47.586Z,1.80
2018-02-16T07:03:47.576Z,1.81
2018-02-16T07:04:47.567Z,1.80
2018-02-16T07:05:47.602Z,1.76
2018-02-16T07:06:47.550Z,1.80
2018-02-16T07:07:47.537Z,1.83
2018-02-16T07:08:47.530Z,1.81
2018-02-16T07:09:47.524Z,1.80
2018-02-16T07:10:47.512Z,1.88
2018-02-16T07:11:47.504Z,2.05
2018-02-16T07:12:47.494Z,2.03
2018-02-16T07:13:47.484Z,2.07
2018-02-16T07:14:47.474Z,2.12
2018-02-16T07:15:47.466Z,2.28
2018-02-16T07:16:47.456Z,2.34
2018-02-16T07:17:47.444Z,2.43
2018-02-16T07:18:47.438Z,2.45
2018-02-16T07:19:47.429Z,2.45
2018-02-16T07:20:47.422Z,2.56
2018-02-16T07:21:47.414Z,2.57
2018-02-16T07:22:47.406Z,2.53
2018-02-16T07:23:47.393Z,2.56
2018-02-16T07:24:47.416Z,2.64
2018-02-16T07:25:47.375Z,2.56
2018-02-16T07:26:47.379Z,2.52
2018-02-16T07:27:47.361Z,2.53
2018-02-16T07:28:47.352Z,2.54
2018-02-16T07:29:47.339Z,2.59
2018-02-16T07:30:47.329Z,2.77
2018-02-16T07:31:47.650Z,2.78
2018-02-16T07:32:47.317Z,2.77
2018-02-16T07:33:47.306Z,2.78
2018-02-16T07:34:47.296Z,2.72
2018-02-16T07:35:48.046Z,2.69
2018-02-16T07:36:47.278Z,2.71
2018-02-16T07:37:47.272Z,2.77
2018-02-16T07:38:47.267Z,2.71
2018-02-16T07:39:47.252Z,2.77
2018-02-16T07:40:47.266Z,2.81
2018-02-16T07:41:47.236Z,2.82
2018-02-16T07:42:47.227Z,2.82
2018-02-16T07:43:47.219Z,2.84
2018-02-16T07:44:47.744Z,2.78
2018-02-16T07:45:47.208Z,2.89
2018-02-16T07:46:47.190Z,3.00
2018-02-16T07:47:47.184Z,3.02
2018-02-16T07:48:47.177Z,3.13
2018-02-16T07:49:47.165Z,3.11
2018-02-16T07:50:47.156Z,3.05
2018-02-16T07:51:47.150Z,2.97
2018-02-16T07:52:47.141Z,3.11
2018-02-16T07:53:47.132Z,2.97
2018-02-16T07:54:47.129Z,3.11
2018-02-16T07:55:47.126Z,2.99
2018-02-16T07:56:47.107Z,3.00
2018-02-16T07:57:47.098Z,3.06
2018-02-16T07:58:47.089Z,3.00
2018-02-16T07:59:47.081Z,3.14
2018-02-16T08:00:47.071Z,3.08
2018-02-16T08:01:47.068Z,3.29
2018-02-16T08:02:47.056Z,3.28
2018-02-16T08:03:47.041Z,3.35
2018-02-16T08:04:47.042Z,3.29
2018-02-16T08:05:47.029Z,3.29
2018-02-16T08:06:47.023Z,3.23
2018-02-16T08:07:47.011Z,3.26
2018-02-16T08:08:47.005Z,3.28
2018-02-16T08:09:46.995Z,3.28
2018-02-16T08:10:47.046Z,3.31
2018-02-16T08:11:46.978Z,3.33
2018-02-16T08:12:46.971Z,3.39
2018-02-16T08:13:46.963Z,3.36
2018-02-16T08:14:47.369Z,3.50
2018-02-16T08:15:47.011Z,3.43
2018-02-16T08:16:46.938Z,3.48
2018-02-16T08:17:46.928Z,3.45
2018-02-16T08:18:46.920Z,3.65
2018-02-16T08:19:46.912Z,3.50
2018-02-16T08:20:46.905Z,3.62
2018-02-16T08:21:46.905Z,3.69
2018-02-16T08:22:46.887Z,3.76
2018-02-16T08:23:46.879Z,3.75
2018-02-16T08:24:46.870Z,3.72
2018-02-16T08:25:46.865Z,3.75
2018-02-16T08:26:46.861Z,3.73
2018-02-16T08:27:46.844Z,3.70
2018-02-16T08:28:46.838Z,3.79
2018-02-16T08:29:47.099Z,3.75
2018-02-16T08:30:46.820Z,3.78
2018-02-16T08:31:46.816Z,3.87
2018-02-16T08:32:46.809Z,3.80
2018-02-16T08:33:46.797Z,3.87
2018-02-16T08:34:46.788Z,3.91
2018-02-16T08:35:46.780Z,3.88
2018-02-16T08:36:46.771Z,3.87
2018-02-16T08:37:46.762Z,3.96
2018-02-16T08:38:46.755Z,4.02
2018-02-16T08:39:46.746Z,4.06
2018-02-16T08:40:46.738Z,4.14
2018-02-16T08:41:46.736Z,4.15
2018-02-16T08:42:46.742Z,4.23
2018-02-16T08:43:46.714Z,4.22
2018-02-16T08:44:46.705Z,4.09
2018-02-16T08:45:46.698Z,4.24
2018-02-16T08:46:46.690Z,4.09
2018-02-16T08:47:46.681Z,4.06
2018-02-16T08:48:46.675Z,4.15
2018-02-16T08:49:46.704Z,4.11
2018-02-16T08:50:46.659Z,4.20
2018-02-16T08:51:46.646Z,4.18
2018-02-16T08:52:46.655Z,4.29
2018-02-16T08:53:46.633Z,4.24
2018-02-16T08:54:46.625Z,4.27
2018-02-16T08:55:46.620Z,4.30
2018-02-16T08:56:46.614Z,4.29
2018-02-16T08:57:46.604Z,4.40
2018-02-16T08:58:46.606Z,4.41
2018-02-16T08:59:46.592Z,4.41
2018-02-16T09:00:46.576Z,4.40
2018-02-16T09:01:46.570Z,4.48
2018-02-16T09:02:46.562Z,4.55
2018-02-16T09:03:46.553Z,4.50
2018-02-16T09:04:46.551Z,4.51
2018-02-16T09:05:46.538Z,4.65
2018-02-16T09:06:46.530Z,4.60
2018-02-16T09:07:46.521Z,4.60
2018-02-16T09:08:46.515Z,4.65
2018-02-16T09:09:46.506Z,4.65
2018-02-16T09:10:46.498Z,4.72
2018-02-16T09:11:46.490Z,4.86
2018-02-16T09:12:46.483Z,4.88
2018-02-16T09:13:46.473Z,4.85
2018-02-16T09:14:46.464Z,4.97
2018-02-16T09:15:46.460Z,4.88
2018-02-16T09:16:46.451Z,4.91
2018-02-16T09:17:46.445Z,4.88
2018-02-16T09:18:46.433Z,4.92
2018-02-16T09:19:46.442Z,5.04
2018-02-16T09:20:46.419Z,4.88
2018-02-16T09:21:46.426Z,4.88
2018-02-16T09:22:46.403Z,4.92
2018-02-16T09:23:46.396Z,5.02
2018-02-16T09:24:46.389Z,5.02
2018-02-16T09:25:46.384Z,5.09
2018-02-16T09:26:46.391Z,5.12
2018-02-16T09:27:46.369Z,5.10
2018-02-16T09:28:46.356Z,5.15
2018-02-16T09:29:46.348Z,5.15
2018-02-16T09:30:46.342Z,5.31
2018-02-16T09:31:46.334Z,5.35
2018-02-16T09:32:46.327Z,5.38
2018-02-16T09:33:46.316Z,5.40
2018-02-16T09:34:46.314Z,5.33
2018-02-16T09:35:46.302Z,5.39
2018-02-16T09:36:46.296Z,5.46
2018-02-16T09:37:46.288Z,5.51
2018-02-16T09:38:46.281Z,5.56
2018-02-16T09:39:46.275Z,5.67
2018-02-16T09:40:46.266Z,5.65
2018-02-16T09:41:46.261Z,5.74
2018-02-16T09:42:46.249Z,5.76
2018-02-16T09:43:46.242Z,5.64
2018-02-16T09:44:46.235Z,5.67
2018-02-16T09:45:46.231Z,5.67
2018-02-16T09:46:46.217Z,5.64
2018-02-16T09:47:46.216Z,5.75
2018-02-16T09:48:46.205Z,5.85
2018-02-16T09:49:46.193Z,5.83
2018-02-16T09:50:46.191Z,5.81
2018-02-16T09:51:46.181Z,5.91
2018-02-16T09:52:46.177Z,6.03
2018-02-16T09:53:46.167Z,6.03
2018-02-16T09:54:46.163Z,6.00
2018-02-16T09:55:46.157Z,5.91
2018-02-16T09:56:46.146Z,5.96
2018-02-16T09:57:46.139Z,6.06
2018-02-16T09:58:46.133Z,6.08
2018-02-16T09:59:46.157Z,6.12
2018-02-16T10:00:46.115Z,6.15
2018-02-16T10:01:46.109Z,6.09
2018-02-16T10:02:46.101Z,6.09
2018-02-16T10:03:46.095Z,6.12
2018-02-16T10:04:46.089Z,6.08
2018-02-16T10:05:46.082Z,6.06
2018-02-16T10:06:46.073Z,6.19
2018-02-16T10:07:46.069Z,6.18
2018-02-16T10:08:46.060Z,6.21
2018-02-16T10:09:46.051Z,6.30
2018-02-16T10:10:46.043Z,6.38
2018-02-16T10:11:46.038Z,6.37
2018-02-16T10:12:46.069Z,6.36
2018-02-16T10:13:46.025Z,6.48
2018-02-16T10:14:46.020Z,6.56
2018-02-16T10:15:46.013Z,6.67
2018-02-16T10:16:46.005Z,6.64
2018-02-16T10:17:45.995Z,6.64
2018-02-16T10:18:45.991Z,6.69
2018-02-16T10:19:45.981Z,6.69
2018-02-16T10:20:45.986Z,6.77
2018-02-16T10:21:45.967Z,6.76
2018-02-16T10:22:45.957Z,6.85
2018-02-16T10:23:45.953Z,6.80
2018-02-16T10:24:45.947Z,6.87
2018-02-16T10:25:45.940Z,6.88
2018-02-16T10:26:45.933Z,6.89
2018-02-16T10:27:45.928Z,6.80
2018-02-16T10:28:45.921Z,6.76
2018-02-16T10:29:45.940Z,6.67
2018-02-16T10:30:45.906Z,6.74
2018-02-16T10:31:45.901Z,6.77
2018-02-16T10:32:45.895Z,6.59
2018-02-16T10:33:45.896Z,6.58
2018-02-16T10:34:45.880Z,6.59
2018-02-16T10:35:45.873Z,6.58
2018-02-16T10:36:45.870Z,6.54
2018-02-16T10:37:45.864Z,6.48
2018-02-16T10:38:45.854Z,6.49
2018-02-16T10:39:45.850Z,6.52
2018-02-16T10:40:45.842Z,6.38
2018-02-16T10:41:45.838Z,6.44
2018-02-16T10:42:45.825Z,6.40
2018-02-16T10:43:45.819Z,6.34
2018-02-16T10:44:45.816Z,6.43
2018-02-16T10:45:45.808Z,6.41
2018-02-16T10:46:45.800Z,6.55
2018-02-16T10:47:45.795Z,6.54
2018-02-16T10:48:45.796Z,6.58
2018-02-16T10:49:45.781Z,6.66
2018-02-16T10:50:45.775Z,6.56
2018-02-16T10:51:45.768Z,6.64
2018-02-16T10:52:45.764Z,6.58
2018-02-16T10:53:45.755Z,6.62
2018-02-16T10:54:45.748Z,6.77
2018-02-16T10:55:45.742Z,6.71
2018-02-16T10:56:45.741Z,6.66
2018-02-16T10:57:45.728Z,6.67
2018-02-16T10:58:45.720Z,6.48
2018-02-16T10:59:45.715Z,6.67
2018-02-16T11:00:45.710Z,6.56
2018-02-16T11:01:45.705Z,6.69
2018-02-16T11:02:45.695Z,6.79
2018-02-16T11:03:45.689Z,6.81
2018-02-16T11:04:45.683Z,6.85
2018-02-16T11:05:45.675Z,6.98
2018-02-16T11:06:45.669Z,7.09
2018-02-16T11:07:45.663Z,6.98
2018-02-16T11:08:45.656Z,7.10
2018-02-16T11:09:45.649Z,7.15
2018-02-16T11:10:45.641Z,7.30
2018-02-16T11:11:45.635Z,7.30
2018-02-16T11:12:45.760Z,7.25
2018-02-16T11:13:45.667Z,7.42
2018-02-16T11:14:45.617Z,7.45
2018-02-16T11:15:45.635Z,7.74
2018-02-16T11:16:45.894Z,7.69
2018-02-16T11:17:45.830Z,7.55
2018-02-16T11:18:45.590Z,7.52
2018-02-16T11:19:45.590Z,7.72
2018-02-16T11:20:45.580Z,7.74
2018-02-16T11:21:45.577Z,7.74
2018-02-16T11:22:45.567Z,7.48
2018-02-16T11:23:45.684Z,7.61
2018-02-16T11:24:45.556Z,7.71
2018-02-16T11:25:45.550Z,7.75
2018-02-16T11:26:45.544Z,7.60
2018-02-16T11:27:45.536Z,7.55
2018-02-16T11:28:45.531Z,7.69
2018-02-16T11:29:45.525Z,7.74
2018-02-16T11:30:45.519Z,7.82
2018-02-16T11:31:45.533Z,7.74
2018-02-16T11:32:45.508Z,7.79
2018-02-16T11:33:45.501Z,7.87
2018-02-16T11:34:45.495Z,8.00
2018-02-16T11:35:45.619Z,8.04
2018-02-16T11:36:45.479Z,8.11
2018-02-16T11:37:45.473Z,8.00
2018-02-16T11:38:45.472Z,8.08
2018-02-16T11:39:45.467Z,8.00
2018-02-16T11:40:45.467Z,8.04
2018-02-16T11:41:45.454Z,8.00
2018-02-16T11:42:45.452Z,7.89
2018-02-16T11:43:45.442Z,7.85
2018-02-16T11:44:45.438Z,7.95
2018-02-16T11:45:45.429Z,8.02
2018-02-16T11:46:45.426Z,8.16
2018-02-16T11:47:45.422Z,8.25
2018-02-16T11:48:45.419Z,8.22
2018-02-16T11:49:45.410Z,8.16
2018-02-16T11:50:45.404Z,8.20
2018-02-16T11:51:45.641Z,7.98
2018-02-16T11:52:45.395Z,7.85
2018-02-16T11:53:45.388Z,7.86
2018-02-16T11:54:45.383Z,7.80
2018-02-16T11:55:45.379Z,7.80
2018-02-16T11:56:45.370Z,7.69
2018-02-16T11:57:45.365Z,7.71
2018-02-16T11:58:45.361Z,7.69
2018-02-16T11:59:45.353Z,7.77
2018-02-16T12:00:45.349Z,7.72
2018-02-16T12:01:45.341Z,7.72
2018-02-16T12:02:45.337Z,7.52
2018-02-16T12:03:45.332Z,7.52
2018-02-16T12:04:45.332Z,7.40
2018-02-16T12:05:45.326Z,7.25
2018-02-16T12:06:45.313Z,7.31
2018-02-16T12:07:45.310Z,7.30
2018-02-16T12:08:45.305Z,7.20
2018-02-16T12:09:45.298Z,7.17
2018-02-16T12:10:45.292Z,7.13
2018-02-16T12:11:45.304Z,7.02
2018-02-16T12:12:45.280Z,6.80
2018-02-16T12:13:45.274Z,6.84
2018-02-16T12:14:45.270Z,6.89
2018-02-16T12:15:45.266Z,6.98
2018-02-16T12:16:45.257Z,6.97
2018-02-16T12:17:45.256Z,6.95
2018-02-16T12:18:45.245Z,7.03
2018-02-16T12:19:45.239Z,7.03
2018-02-16T12:20:45.233Z,6.95
2018-02-16T12:21:45.236Z,6.99
2018-02-16T12:22:45.221Z,7.09
2018-02-16T12:23:45.213Z,7.07
2018-02-16T12:24:45.209Z,6.98
2018-02-16T12:25:45.204Z,7.17
2018-02-16T12:26:45.197Z,7.16
2018-02-16T12:27:45.193Z,7.37
2018-02-16T12:28:45.186Z,7.24
2018-02-16T12:29:45.181Z,7.30
2018-02-16T12:30:45.172Z,7.30
2018-02-16T12:31:45.167Z,7.40
2018-02-16T12:32:45.161Z,7.39
2018-02-16T12:33:45.165Z,7.31
2018-02-16T12:34:45.150Z,7.30
2018-02-16T12:35:45.143Z,7.27
2018-02-16T12:36:45.138Z,7.34
2018-02-16T12:37:45.132Z,7.37
2018-02-16T12:38:45.125Z,7.55
2018-02-16T12:39:45.119Z,7.45
2018-02-16T12:40:45.113Z,7.48
2018-02-16T12:41:45.107Z,7.48
2018-02-16T12:42:45.101Z,7.53
2018-02-16T12:43:45.097Z,7.57
2018-02-16T12:44:45.090Z,7.45
2018-02-16T12:45:45.081Z,7.50
2018-02-16T12:46:45.080Z,7.52
2018-02-16T12:47:45.073Z,7.50
2018-02-16T12:48:45.067Z,7.55
2018-02-16T12:49:45.062Z,7.55
2018-02-16T12:50:45.054Z,7.74
2018-02-16T12:51:45.050Z,7.72
2018-02-16T12:52:45.044Z,7.77
2018-02-16T12:53:45.038Z,7.74
2018-02-16T12:54:45.030Z,7.85
2018-02-16T12:55:45.025Z,7.95
2018-02-16T12:56:45.215Z,8.00
2018-02-16T12:57:45.013Z,8.01
2018-02-16T12:58:45.009Z,8.28
2018-02-16T12:59:45.013Z,8.44
2018-02-16T13:00:44.997Z,8.63
2018-02-16T13:01:44.994Z,8.70
2018-02-16T13:02:44.986Z,8.74
2018-02-16T13:03:44.976Z,8.83
2018-02-16T13:04:44.977Z,8.87
2018-02-16T13:05:44.968Z,8.91
2018-02-16T13:06:44.966Z,9.02
2018-02-16T13:07:44.964Z,9.04
2018-02-16T13:08:44.959Z,8.95
2018-02-16T13:09:44.949Z,9.05
2018-02-16T13:10:44.947Z,8.95
2018-02-16T13:11:44.939Z,8.99
2018-02-16T13:12:44.936Z,9.13
2018-02-16T13:13:44.930Z,9.14
2018-02-16T13:14:44.921Z,9.18
2018-02-16T13:15:44.921Z,8.98
2018-02-16T13:16:44.915Z,9.01
2018-02-16T13:17:44.908Z,9.02
2018-02-16T13:18:44.903Z,9.13